createdAt,value
2017-10-15T00:02:09.893Z,7.83
2017-10-15T00:04:39.237Z,9.03
2017-10-15T00:07:08.609Z,12.83
2017-10-15T00:09:37.802Z,9.43
2017-10-15T00:12:19.001Z,12.73
2017-10-15T00:14:48.148Z,14.20
2017-10-15T00:17:17.311Z,10.63
2017-10-15T00:19:46.751Z,11.43
2017-10-15T00:22:15.902Z,8.87
2017-10-15T00:24:45.070Z,10.53
2017-10-15T00:27:14.201Z,14.27
2017-10-15T00:29:43.386Z,12.77
2017-10-15T00:32:12.503Z,9.00
2017-10-15T00:34:41.633Z,9.20
2017-10-15T00:37:10.962Z,8.33
2017-10-15T00:39:40.138Z,10.50
2017-10-15T00:42:09.275Z,14.90
2017-10-15T00:44:38.420Z,9.00
2017-10-15T00:47:07.577Z,8.87
2017-10-15T00:49:43.766Z,8.33
2017-10-15T00:52:12.931Z,9.00
2017-10-15T00:54:42.042Z,9.50
2017-10-15T00:57:11.215Z,8.23
2017-10-15T00:59:40.424Z,10.00
2017-10-15T01:02:09.573Z,8.33
2017-10-15T01:04:39.570Z,8.13
2017-10-15T01:07:16.083Z,9.57
2017-10-15T01:09:45.270Z,9.00
2017-10-15T01:12:14.904Z,9.63
2017-10-15T01:14:45.285Z,7.80
2017-10-15T01:17:14.446Z,8.90
2017-10-15T01:19:43.804Z,8.67
2017-10-15T01:22:16.331Z,7.53
2017-10-15T01:24:45.491Z,15.73
2017-10-15T01:27:14.673Z,13.80
2017-10-15T01:29:43.808Z,12.37
2017-10-15T01:32:13.224Z,9.00
2017-10-15T01:34:55.290Z,9.10
2017-10-15T01:37:24.713Z,10.63
2017-10-15T01:39:57.247Z,11.20
2017-10-15T01:42:26.852Z,9.53
2017-10-15T01:44:56.159Z,8.00
2017-10-15T01:47:25.366Z,8.60
2017-10-15T01:49:54.554Z,11.13
2017-10-15T01:52:23.721Z,9.43
2017-10-15T01:54:53.205Z,11.53
2017-10-15T01:57:22.382Z,8.37
2017-10-15T01:59:51.956Z,8.67
2017-10-15T02:02:21.122Z,7.73
2017-10-15T02:04:50.517Z,7.40
2017-10-15T02:07:26.017Z,12.00
2017-10-15T02:09:55.149Z,9.97
2017-10-15T02:12:24.271Z,9.60
2017-10-15T02:14:53.568Z,9.30
2017-10-15T02:17:22.710Z,11.33
2017-10-15T02:19:51.871Z,14.27
2017-10-15T02:22:20.974Z,8.90
2017-10-15T02:24:50.275Z,8.93
2017-10-15T02:27:19.841Z,9.30
2017-10-15T02:30:02.794Z,9.00
2017-10-15T02:32:32.298Z,8.40
2017-10-15T02:35:01.450Z,9.30
2017-10-15T02:37:30.612Z,8.20
2017-10-15T02:39:59.889Z,8.27
2017-10-15T02:42:29.072Z,18.43
2017-10-15T02:44:58.262Z,9.00
2017-10-15T02:47:27.412Z,11.57
2017-10-15T02:49:56.574Z,10.43
2017-10-15T02:52:25.681Z,8.87
2017-10-15T02:54:55.010Z,8.57
2017-10-15T02:57:24.146Z,8.23
2017-10-15T02:59:53.332Z,8.80
2017-10-15T03:02:22.450Z,9.53
2017-10-15T03:04:51.878Z,10.80
2017-10-15T03:07:21.136Z,8.93
2017-10-15T03:09:50.904Z,9.20
2017-10-15T03:12:20.053Z,10.50
2017-10-15T03:14:49.173Z,8.80
2017-10-15T03:17:18.285Z,8.90
2017-10-15T03:19:47.476Z,11.30
2017-10-15T03:22:16.708Z,9.33
2017-10-15T03:24:45.851Z,10.23
2017-10-15T03:27:14.983Z,8.17
2017-10-15T03:29:50.474Z,8.43
2017-10-15T03:32:31.866Z,10.40
2017-10-15T03:35:01.009Z,14.90
2017-10-15T03:37:31.238Z,8.43
2017-10-15T03:40:00.336Z,10.17
2017-10-15T03:42:29.481Z,11.20
2017-10-15T03:45:05.978Z,10.13
2017-10-15T03:47:35.118Z,8.47
2017-10-15T03:50:05.322Z,9.63
2017-10-15T03:52:36.094Z,10.87
2017-10-15T03:55:05.272Z,13.80
2017-10-15T03:57:34.410Z,8.93
2017-10-15T04:00:03.583Z,9.40
2017-10-15T04:02:32.734Z,9.20
2017-10-15T04:05:01.883Z,9.10
2017-10-15T04:07:31.065Z,35.20
2017-10-15T04:10:00.222Z,20.93
2017-10-15T04:12:29.374Z,10.60
2017-10-15T04:15:11.931Z,9.43
2017-10-15T04:17:41.116Z,19.13
2017-10-15T04:20:10.337Z,12.60
2017-10-15T04:22:40.940Z,10.53
2017-10-15T04:25:10.148Z,11.57
2017-10-15T04:27:39.370Z,35.13
2017-10-15T04:30:08.482Z,29.17
2017-10-15T04:32:38.898Z,33.67
2017-10-15T04:35:08.067Z,15.53
2017-10-15T04:37:45.176Z,19.30
2017-10-15T04:40:15.065Z,59.53
2017-10-15T04:42:44.458Z,25.53
2017-10-15T04:45:13.588Z,51.03
2017-10-15T04:47:42.764Z,17.60
2017-10-15T04:50:11.901Z,33.30
2017-10-15T04:52:41.034Z,14.00
2017-10-15T04:55:12.442Z,13.70
2017-10-15T04:57:49.334Z,11.33
2017-10-15T05:00:18.487Z,12.70
2017-10-15T05:02:47.618Z,10.30
2017-10-15T05:05:23.685Z,9.50
2017-10-15T05:07:52.841Z,10.20
2017-10-15T05:10:29.778Z,13.20
2017-10-15T05:12:58.953Z,17.00
2017-10-15T05:15:40.420Z,13.23
2017-10-15T05:18:16.055Z,15.03
2017-10-15T05:20:45.264Z,18.67
2017-10-15T05:23:14.437Z,23.40
2017-10-15T05:25:57.886Z,15.40
2017-10-15T05:28:27.046Z,22.07
2017-10-15T05:31:09.241Z,21.93
2017-10-15T05:33:38.394Z,43.73
2017-10-15T05:36:07.614Z,21.63
2017-10-15T05:38:36.765Z,21.33
2017-10-15T05:41:11.974Z,20.20
2017-10-15T05:43:41.127Z,27.83
2017-10-15T05:46:10.262Z,25.67
2017-10-15T05:48:53.049Z,22.17
2017-10-15T05:51:22.158Z,53.60
2017-10-15T05:53:51.341Z,38.57
2017-10-15T05:56:20.504Z,19.10
2017-10-15T05:58:49.646Z,16.23
2017-10-15T06:01:19.010Z,19.73
2017-10-15T06:03:48.174Z,19.30
2017-10-15T06:06:17.371Z,13.97
2017-10-15T06:08:46.681Z,14.40
2017-10-15T06:11:15.865Z,23.77
2017-10-15T06:13:45.021Z,22.53
2017-10-15T06:16:15.003Z,34.93
2017-10-15T06:18:50.605Z,61.70
2017-10-15T06:21:19.782Z,42.47
2017-10-15T06:23:48.930Z,19.83
2017-10-15T06:26:18.261Z,22.80
2017-10-15T06:28:53.545Z,39.63
2017-10-15T06:31:36.302Z,30.57
2017-10-15T06:34:05.446Z,30.70
2017-10-15T06:36:43.762Z,90.37
2017-10-15T06:39:12.934Z,87.13
2017-10-15T06:41:42.105Z,67.67
2017-10-15T06:44:11.240Z,61.30
2017-10-15T06:46:40.346Z,132.73
2017-10-15T06:49:09.501Z,103.57
2017-10-15T06:51:38.673Z,79.27
2017-10-15T06:54:07.829Z,65.60
2017-10-15T06:56:36.994Z,138.00
2017-10-15T06:59:06.182Z,85.13
2017-10-15T07:01:41.555Z,172.30
2017-10-15T07:04:10.835Z,122.17
2017-10-15T07:06:46.485Z,220.20
2017-10-15T07:09:15.612Z,115.87
2017-10-15T07:11:44.794Z,80.37
2017-10-15T07:14:16.322Z,91.33
2017-10-15T07:16:45.611Z,86.87
2017-10-15T07:19:15.013Z,93.10
2017-10-15T07:21:50.560Z,44.33
2017-10-15T07:24:36.663Z,47.33
2017-10-15T07:27:05.767Z,56.73
2017-10-15T07:29:35.044Z,52.50
2017-10-15T07:32:05.070Z,43.00
2017-10-15T07:34:34.249Z,43.10
2017-10-15T07:37:03.664Z,31.00
2017-10-15T07:39:32.829Z,10.80
2017-10-15T07:42:01.941Z,33.67
2017-10-15T07:44:31.314Z,50.13
2017-10-15T07:47:00.463Z,37.70
2017-10-15T07:49:29.629Z,35.87
2017-10-15T07:52:07.937Z,11.03
2017-10-15T07:54:37.056Z,9.90
2017-10-15T07:57:06.186Z,7.50
2017-10-15T07:59:35.467Z,7.33
2017-10-15T08:02:04.663Z,13.33
2017-10-15T08:04:33.831Z,7.23
2017-10-15T08:07:09.429Z,11.03
2017-10-15T08:09:38.576Z,11.70
2017-10-15T08:12:07.850Z,6.27
2017-10-15T08:14:36.966Z,7.50
2017-10-15T08:17:06.359Z,11.13
2017-10-15T08:19:35.502Z,8.47
2017-10-15T08:22:04.964Z,6.83
2017-10-15T08:24:34.082Z,12.10
2017-10-15T08:27:03.202Z,7.80
2017-10-15T08:29:46.521Z,10.23
2017-10-15T08:32:15.671Z,8.13
2017-10-15T08:34:44.803Z,9.63
2017-10-15T08:37:21.152Z,7.83
2017-10-15T08:40:02.406Z,5.47
2017-10-15T08:42:38.220Z,10.50
2017-10-15T08:45:15.419Z,13.53
2017-10-15T08:47:44.977Z,8.60
2017-10-15T08:50:15.205Z,7.63
2017-10-15T08:52:44.821Z,8.93
2017-10-15T08:55:13.940Z,14.33
2017-10-15T08:57:43.290Z,9.17
2017-10-15T09:00:12.432Z,16.23
2017-10-15T09:02:41.590Z,17.83
2017-10-15T09:05:10.727Z,18.70
2017-10-15T09:07:40.089Z,13.63
2017-10-15T09:10:09.210Z,7.93
2017-10-15T09:12:38.344Z,8.57
2017-10-15T09:15:07.660Z,6.27
2017-10-15T09:17:39.318Z,6.37
2017-10-15T09:20:08.464Z,6.80
2017-10-15T09:22:37.835Z,6.13
2017-10-15T09:25:07.053Z,8.80
2017-10-15T09:27:40.133Z,6.87
2017-10-15T09:30:09.288Z,12.23
2017-10-15T09:32:38.698Z,5.17
2017-10-15T09:35:07.845Z,10.27
2017-10-15T09:37:44.633Z,9.07
2017-10-15T09:40:16.916Z,8.50
2017-10-15T09:42:52.872Z,8.40
2017-10-15T09:45:22.019Z,7.33
2017-10-15T09:47:51.195Z,13.90
2017-10-15T09:50:20.338Z,5.93
2017-10-15T09:52:55.702Z,8.00
2017-10-15T09:55:25.291Z,15.00
2017-10-15T09:57:54.442Z,5.63
2017-10-15T10:00:23.625Z,6.20
2017-10-15T10:02:54.486Z,7.57
2017-10-15T10:05:23.815Z,8.93
2017-10-15T10:07:52.966Z,12.63
2017-10-15T10:10:22.440Z,8.33
2017-10-15T10:12:51.609Z,13.93
2017-10-15T10:15:32.698Z,13.70
2017-10-15T10:18:01.880Z,10.40
2017-10-15T10:20:31.015Z,8.60
2017-10-15T10:23:00.148Z,10.57
2017-10-15T10:25:36.560Z,12.13
2017-10-15T10:28:05.707Z,8.97
2017-10-15T10:30:34.922Z,12.53
2017-10-15T10:33:05.812Z,8.50
2017-10-15T10:35:36.078Z,8.07
2017-10-15T10:38:05.247Z,10.30
2017-10-15T10:40:34.607Z,9.10
2017-10-15T10:43:03.926Z,11.80
2017-10-15T10:45:33.091Z,12.10
2017-10-15T10:48:02.355Z,8.30
2017-10-15T10:50:31.471Z,6.77
2017-10-15T10:53:00.647Z,6.60
2017-10-15T10:55:33.292Z,9.70
2017-10-15T10:58:02.432Z,7.77
2017-10-15T11:00:31.735Z,8.93
2017-10-15T11:03:00.886Z,15.40
2017-10-15T11:05:30.063Z,23.93
2017-10-15T11:08:00.490Z,15.50
2017-10-15T11:10:33.147Z,7.50
2017-10-15T11:13:02.307Z,8.03
2017-10-15T11:15:31.463Z,10.67
2017-10-15T11:18:00.563Z,9.00
2017-10-15T11:20:29.723Z,10.57
2017-10-15T11:22:58.927Z,69.70
2017-10-15T11:25:28.081Z,22.83
2017-10-15T11:28:07.446Z,20.77
2017-10-15T11:30:37.298Z,14.57
2017-10-15T11:33:06.664Z,9.80
2017-10-15T11:35:35.865Z,16.37
2017-10-15T11:38:04.967Z,19.63
2017-10-15T11:40:34.084Z,12.50
2017-10-15T11:43:03.285Z,12.53
2017-10-15T11:45:32.529Z,11.50
2017-10-15T11:48:01.693Z,14.03
2017-10-15T11:50:31.064Z,22.03
2017-10-15T11:53:00.563Z,19.60
2017-10-15T11:55:29.698Z,24.40
2017-10-15T11:57:58.850Z,19.60
2017-10-15T12:00:34.112Z,19.53
2017-10-15T12:03:10.015Z,39.53
2017-10-15T12:05:39.431Z,15.37
2017-10-15T12:08:08.615Z,23.30
2017-10-15T12:10:38.013Z,18.47
2017-10-15T12:13:14.461Z,14.20
2017-10-15T12:15:43.821Z,24.40
2017-10-15T12:18:13.087Z,17.00
2017-10-15T12:20:50.193Z,15.20
2017-10-15T12:23:25.393Z,10.00
2017-10-15T12:25:54.581Z,14.67
2017-10-15T12:28:23.765Z,13.00
2017-10-15T12:30:59.666Z,7.10
2017-10-15T12:33:28.848Z,23.13
2017-10-15T12:36:11.688Z,14.43
2017-10-15T12:38:41.680Z,9.33
2017-10-15T12:41:10.842Z,21.97
2017-10-15T12:43:40.206Z,23.23
2017-10-15T12:46:09.562Z,27.87
2017-10-15T12:48:38.716Z,33.90
2017-10-15T12:51:07.902Z,18.70
2017-10-15T12:53:43.253Z,17.43
2017-10-15T12:56:13.032Z,15.60
2017-10-15T12:58:42.223Z,27.00
2017-10-15T13:01:11.373Z,16.07
2017-10-15T13:03:40.661Z,13.60
2017-10-15T13:06:09.832Z,11.30
2017-10-15T13:08:39.227Z,6.63
2017-10-15T13:11:08.538Z,10.30
2017-10-15T13:13:37.644Z,26.50
2017-10-15T13:16:08.286Z,9.63
2017-10-15T13:18:37.449Z,8.33
2017-10-15T13:21:06.599Z,34.97
2017-10-15T13:23:35.838Z,10.17
2017-10-15T13:26:04.982Z,7.90
2017-10-15T13:28:34.099Z,9.33
2017-10-15T13:31:03.743Z,11.90
2017-10-15T13:33:33.111Z,17.93
2017-10-15T13:36:09.251Z,10.90
2017-10-15T13:38:38.432Z,17.70
2017-10-15T13:41:14.308Z,7.80
2017-10-15T13:43:43.449Z,22.93
2017-10-15T13:46:21.140Z,10.43
2017-10-15T13:48:50.301Z,13.27
2017-10-15T13:51:19.451Z,10.60
2017-10-15T13:54:04.034Z,9.43
2017-10-15T13:56:46.248Z,9.77
2017-10-15T13:59:15.393Z,7.47
2017-10-15T14:01:44.776Z,9.70
2017-10-15T14:04:14.016Z,12.17
2017-10-15T14:06:43.254Z,13.93
2017-10-15T14:09:25.977Z,11.13
2017-10-15T14:11:55.202Z,18.60
2017-10-15T14:14:24.439Z,14.90
2017-10-15T14:16:53.782Z,13.07
2017-10-15T14:19:22.916Z,10.00
2017-10-15T14:21:52.204Z,22.83
2017-10-15T14:24:22.804Z,6.17
2017-10-15T14:26:51.985Z,11.13
2017-10-15T14:29:21.097Z,8.60
2017-10-15T14:31:50.437Z,8.40
2017-10-15T14:34:19.893Z,7.90
2017-10-15T14:36:49.087Z,6.47
2017-10-15T14:39:18.210Z,5.60
2017-10-15T14:41:47.398Z,12.00
2017-10-15T14:44:16.522Z,8.93
2017-10-15T14:46:45.842Z,21.63
2017-10-15T14:49:15.227Z,8.20
2017-10-15T14:51:44.454Z,7.73
2017-10-15T14:54:13.626Z,6.77
2017-10-15T14:56:42.868Z,7.20
2017-10-15T14:59:12.059Z,7.33
2017-10-15T15:01:41.313Z,7.87
2017-10-15T15:04:12.828Z,10.07
2017-10-15T15:06:42.070Z,16.23
2017-10-15T15:09:11.199Z,12.27
2017-10-15T15:11:40.459Z,4.57
2017-10-15T15:14:09.712Z,7.10
2017-10-15T15:16:40.897Z,4.47
2017-10-15T15:19:10.348Z,10.53
2017-10-15T15:21:47.606Z,12.30
2017-10-15T15:24:16.782Z,4.82
2017-10-15T15:26:45.955Z,6.20
2017-10-15T15:29:15.091Z,5.85
2017-10-15T15:31:57.899Z,6.05
2017-10-15T15:34:27.655Z,6.65
2017-10-15T15:37:04.466Z,8.37
2017-10-15T15:39:33.624Z,18.63
2017-10-15T15:42:03.174Z,10.63
2017-10-15T15:44:39.972Z,15.17
2017-10-15T15:47:09.149Z,4.72
2017-10-15T15:49:40.398Z,6.10
2017-10-15T15:52:09.614Z,10.90
2017-10-15T15:54:38.780Z,7.53
2017-10-15T15:57:08.099Z,5.03
2017-10-15T15:59:38.044Z,16.50
2017-10-15T16:02:07.180Z,5.53
2017-10-15T16:04:43.373Z,6.67
2017-10-15T16:07:12.619Z,4.30
2017-10-15T16:09:41.806Z,6.77
2017-10-15T16:12:11.444Z,13.47
2017-10-15T16:14:40.724Z,11.40
2017-10-15T16:17:09.962Z,8.23
2017-10-15T16:19:39.299Z,8.60
2017-10-15T16:22:08.606Z,5.53
2017-10-15T16:24:43.858Z,4.63
2017-10-15T16:27:13.216Z,5.60
2017-10-15T16:29:42.565Z,6.73
2017-10-15T16:32:11.738Z,7.73
2017-10-15T16:34:41.012Z,9.70
2017-10-15T16:37:10.236Z,8.83
2017-10-15T16:39:39.370Z,10.33
2017-10-15T16:42:09.637Z,16.40
2017-10-15T16:44:38.792Z,6.20
2017-10-15T16:47:08.134Z,10.00
2017-10-15T16:49:37.298Z,10.00
2017-10-15T16:52:06.667Z,6.33
2017-10-15T16:54:40.661Z,9.10
2017-10-15T16:57:09.825Z,7.67
2017-10-15T16:59:39.151Z,15.43
2017-10-15T17:02:08.389Z,11.40
2017-10-15T17:04:37.554Z,9.23
2017-10-15T17:07:06.879Z,16.13
2017-10-15T17:09:36.139Z,13.77
2017-10-15T17:12:05.267Z,10.83
2017-10-15T17:14:36.382Z,10.73
2017-10-15T17:17:05.795Z,10.63
2017-10-15T17:19:40.745Z,11.13
2017-10-15T17:22:09.979Z,9.63
2017-10-15T17:24:39.847Z,10.97
2017-10-15T17:27:09.824Z,16.60
2017-10-15T17:29:38.970Z,16.37
2017-10-15T17:32:15.060Z,12.63
2017-10-15T17:34:45.185Z,6.40
2017-10-15T17:37:14.427Z,7.80
2017-10-15T17:39:43.540Z,5.80
2017-10-15T17:42:13.651Z,7.50
2017-10-15T17:44:57.060Z,7.50
2017-10-15T17:47:26.701Z,6.00
2017-10-15T17:49:59.556Z,9.03
2017-10-15T17:52:30.760Z,7.63
2017-10-15T17:55:01.928Z,8.87
2017-10-15T17:57:31.277Z,13.93
2017-10-15T18:00:01.883Z,8.73
2017-10-15T18:02:31.953Z,7.97
2017-10-15T18:05:01.263Z,6.20
2017-10-15T18:07:30.635Z,6.90
2017-10-15T18:10:00.570Z,7.60
2017-10-15T18:12:30.177Z,7.03
2017-10-15T18:15:00.675Z,10.50
2017-10-15T18:17:30.876Z,8.87
2017-10-15T18:20:00.500Z,8.43
2017-10-15T18:22:29.735Z,10.73
2017-10-15T18:24:59.193Z,9.37
2017-10-15T18:27:28.366Z,7.00
2017-10-15T18:30:00.160Z,8.60
2017-10-15T18:32:30.429Z,8.60
2017-10-15T18:35:00.691Z,9.37
2017-10-15T18:37:30.031Z,8.83
2017-10-15T18:39:59.836Z,13.10
2017-10-15T18:42:28.996Z,7.83
2017-10-15T18:44:58.158Z,19.37
2017-10-15T18:47:40.508Z,10.07
2017-10-15T18:50:09.690Z,11.03
2017-10-15T18:52:38.990Z,8.23
2017-10-15T18:55:08.162Z,7.73
2017-10-15T18:57:37.306Z,7.27
2017-10-15T19:00:06.697Z,9.17
2017-10-15T19:02:50.522Z,9.50
2017-10-15T19:05:19.781Z,8.90
2017-10-15T19:07:50.797Z,9.27
2017-10-15T19:10:28.235Z,10.83
2017-10-15T19:13:07.393Z,10.27
2017-10-15T19:15:36.942Z,7.60
2017-10-15T19:18:06.146Z,11.90
2017-10-15T19:20:35.509Z,7.53
2017-10-15T19:23:04.855Z,9.20
2017-10-15T19:25:34.188Z,10.00
2017-10-15T19:28:03.515Z,10.00
2017-10-15T19:30:33.340Z,7.17
2017-10-15T19:33:09.863Z,9.40
2017-10-15T19:35:38.997Z,7.60
2017-10-15T19:38:16.777Z,7.47
2017-10-15T19:40:45.971Z,13.20
2017-10-15T19:43:15.199Z,9.20
2017-10-15T19:45:44.603Z,8.07
2017-10-15T19:48:20.045Z,7.90
2017-10-15T19:50:49.619Z,8.33
2017-10-15T19:53:19.122Z,10.23
2017-10-15T19:55:48.416Z,9.23
2017-10-15T19:58:18.398Z,7.90
2017-10-15T20:00:47.626Z,8.00
2017-10-15T20:03:23.283Z,7.30
2017-10-15T20:05:58.429Z,6.90
2017-10-15T20:08:27.561Z,9.77
2017-10-15T20:10:58.162Z,9.07
2017-10-15T20:13:27.451Z,9.33
2017-10-15T20:15:56.889Z,7.53
2017-10-15T20:18:27.211Z,7.33
2017-10-15T20:20:56.524Z,9.57
2017-10-15T20:23:25.903Z,9.17
2017-10-15T20:25:57.563Z,8.20
2017-10-15T20:28:26.738Z,8.60
2017-10-15T20:31:02.603Z,12.03
2017-10-15T20:33:33.030Z,8.60
2017-10-15T20:36:02.183Z,12.80
2017-10-15T20:38:31.322Z,9.30
2017-10-15T20:41:00.449Z,9.97
2017-10-15T20:43:30.595Z,9.77
2017-10-15T20:46:00.542Z,7.90
2017-10-15T20:48:29.980Z,7.23
2017-10-15T20:50:59.816Z,14.30
2017-10-15T20:53:29.339Z,9.17
2017-10-15T20:55:58.500Z,7.77
2017-10-15T20:58:27.640Z,9.33
2017-10-15T21:01:00.381Z,7.27
2017-10-15T21:03:29.732Z,7.50
2017-10-15T21:05:59.364Z,8.00
2017-10-15T21:08:28.931Z,8.80
2017-10-15T21:10:58.248Z,10.70
2017-10-15T21:13:27.555Z,9.70
2017-10-15T21:15:56.959Z,12.43
2017-10-15T21:18:26.332Z,10.63
2017-10-15T21:21:08.663Z,10.50
2017-10-15T21:23:38.658Z,8.50
2017-10-15T21:26:07.809Z,11.60
2017-10-15T21:28:44.832Z,7.20
2017-10-15T21:31:22.395Z,11.63
2017-10-15T21:33:52.072Z,12.03
2017-10-15T21:36:21.889Z,9.30
2017-10-15T21:38:51.071Z,8.27
2017-10-15T21:41:20.403Z,8.73
2017-10-15T21:43:49.584Z,9.80
2017-10-15T21:46:18.731Z,7.40
2017-10-15T21:48:54.246Z,7.47
2017-10-15T21:51:23.637Z,9.53
2017-10-15T21:53:53.129Z,10.60
2017-10-15T21:56:28.550Z,11.93
2017-10-15T21:59:04.512Z,8.33
2017-10-15T22:01:37.311Z,11.10
2017-10-15T22:04:13.063Z,8.43
2017-10-15T22:06:42.801Z,10.07
2017-10-15T22:09:18.493Z,11.60
2017-10-15T22:11:47.850Z,9.93
2017-10-15T22:14:16.998Z,10.20
2017-10-15T22:16:46.360Z,10.33
2017-10-15T22:19:15.533Z,10.33
2017-10-15T22:21:50.398Z,14.80
2017-10-15T22:24:20.519Z,11.70
2017-10-15T22:26:49.682Z,10.80
2017-10-15T22:29:19.485Z,15.50
2017-10-15T22:31:50.763Z,10.50
2017-10-15T22:34:20.641Z,15.23
2017-10-15T22:36:50.348Z,10.63
2017-10-15T22:39:35.046Z,11.00
2017-10-15T22:42:17.831Z,11.20
2017-10-15T22:44:47.278Z,14.20
2017-10-15T22:47:23.201Z,16.87
2017-10-15T22:49:52.428Z,12.00
2017-10-15T22:52:21.723Z,15.20
2017-10-15T22:54:50.870Z,12.70
2017-10-15T22:57:20.141Z,14.70
2017-10-15T22:59:49.255Z,14.40
2017-10-15T23:02:18.558Z,12.43
2017-10-15T23:05:02.949Z,14.30
2017-10-15T23:07:32.087Z,17.07
2017-10-15T23:10:01.218Z,13.07
2017-10-15T23:12:43.440Z,12.47
2017-10-15T23:15:12.587Z,12.60
2017-10-15T23:17:41.738Z,12.67
2017-10-15T23:20:10.842Z,14.67
2017-10-15T23:22:40.029Z,17.40
2017-10-15T23:25:09.170Z,12.53
2017-10-15T23:27:38.322Z,13.27
2017-10-15T23:30:15.467Z,12.93
2017-10-15T23:32:44.616Z,13.00
2017-10-15T23:35:13.986Z,14.90
2017-10-15T23:37:43.269Z,13.73
2017-10-15T23:40:12.406Z,21.90
2017-10-15T23:42:41.557Z,16.90
2017-10-15T23:45:18.655Z,12.60
2017-10-15T23:47:48.596Z,15.13
2017-10-15T23:50:17.924Z,15.33
2017-10-15T23:52:48.996Z,14.43
2017-10-15T23:55:18.295Z,13.53
2017-10-15T23:57:51.214Z,13.33
